sensor_id;sensor_type;location;lat;lon;timestamp;pressure;altitude;pressure_sealevel;temperature;humidity
37514;BME280;52779;42.670;23.326;2024-01-16T00:00:49;93283.41;;;2.39;65.46
37514;BME280;52779;42.670;23.326;2024-01-16T00:03:15;93296.69;;;2.36;65.70
37514;BME280;52779;42.670;23.326;2024-01-16T00:05:41;93304.03;;;2.33;65.72
37514;BME280;52779;42.670;23.326;2024-01-16T00:08:06;93296.50;;;2.31;66.35
37514;BME280;52779;42.670;23.326;2024-01-16T00:10:31;93323.03;;;2.45;65.55
37514;BME280;52779;42.670;23.326;2024-01-16T00:12:57;93315.53;;;2.37;65.70
37514;BME280;52779;42.670;23.326;2024-01-16T00:15:22;93320.25;;;2.40;65.79
37514;BME280;52779;42.670;23.326;2024-01-16T00:17:48;93290.56;;;2.31;65.79
37514;BME280;52779;42.670;23.326;2024-01-16T00:20:14;93305.59;;;2.47;65.41
37514;BME280;52779;42.670;23.326;2024-01-16T00:22:39;93302.03;;;2.41;65.98
37514;BME280;52779;42.670;23.326;2024-01-16T00:25:05;93290.53;;;2.44;65.73
37514;BME280;52779;42.670;23.326;2024-01-16T00:27:30;93300.66;;;2.32;65.16
37514;BME280;52779;42.670;23.326;2024-01-16T00:29:55;93336.84;;;2.57;65.18
37514;BME280;52779;42.670;23.326;2024-01-16T00:32:21;93305.38;;;2.55;65.13
37514;BME280;52779;42.670;23.326;2024-01-16T00:34:47;93323.81;;;2.52;65.40
37514;BME280;52779;42.670;23.326;2024-01-16T00:37:12;93321.44;;;2.50;65.76
37514;BME280;52779;42.670;23.326;2024-01-16T00:39:37;93319.81;;;2.62;64.50
37514;BME280;52779;42.670;23.326;2024-01-16T00:42:03;93322.78;;;2.59;64.46
37514;BME280;52779;42.670;23.326;2024-01-16T00:44:28;93329.94;;;2.57;65.23
37514;BME280;52779;42.670;23.326;2024-01-16T00:46:54;93296.22;;;2.59;64.96
37514;BME280;52779;42.670;23.326;2024-01-16T00:49:19;93342.44;;;2.54;65.20
37514;BME280;52779;42.670;23.326;2024-01-16T00:51:45;93354.31;;;2.48;65.44
37514;BME280;52779;42.670;23.326;2024-01-16T00:54:10;93318.47;;;2.47;65.82
37514;BME280;52779;42.670;23.326;2024-01-16T00:56:35;93330.53;;;2.53;66.30
37514;BME280;52779;42.670;23.326;2024-01-16T00:59:01;93319.66;;;2.51;66.46
37514;BME280;52779;42.670;23.326;2024-01-16T01:01:27;93328.97;;;2.52;66.60
37514;BME280;52779;42.670;23.326;2024-01-16T01:03:52;93370.75;;;2.67;66.70
37514;BME280;52779;42.670;23.326;2024-01-16T01:06:17;93366.56;;;2.66;65.87
37514;BME280;52779;42.670;23.326;2024-01-16T01:08:43;93382.03;;;2.66;65.61
37514;BME280;52779;42.670;23.326;2024-01-16T01:11:08;93353.13;;;2.64;65.78
37514;BME280;52779;42.670;23.326;2024-01-16T01:13:34;93333.91;;;2.60;66.18
37514;BME280;52779;42.670;23.326;2024-01-16T01:15:59;93347.16;;;2.70;65.59
37514;BME280;52779;42.670;23.326;2024-01-16T01:18:25;93344.41;;;2.65;66.18
37514;BME280;52779;42.670;23.326;2024-01-16T01:20:50;93355.69;;;2.64;66.05
37514;BME280;52779;42.670;23.326;2024-01-16T01:23:16;93331.50;;;2.65;66.13
37514;BME280;52779;42.670;23.326;2024-01-16T01:25:41;93353.06;;;2.77;65.37
37514;BME280;52779;42.670;23.326;2024-01-16T01:28:07;93362.81;;;2.68;66.03
37514;BME280;52779;42.670;23.326;2024-01-16T01:30:33;93345.97;;;2.66;66.46
37514;BME280;52779;42.670;23.326;2024-01-16T01:32:58;93349.88;;;2.82;65.08
37514;BME280;52779;42.670;23.326;2024-01-16T01:35:23;93344.16;;;2.73;65.08
37514;BME280;52779;42.670;23.326;2024-01-16T01:37:49;93345.75;;;2.74;65.19
37514;BME280;52779;42.670;23.326;2024-01-16T01:40:14;93333.22;;;2.84;63.64
37514;BME280;52779;42.670;23.326;2024-01-16T01:42:41;93330.63;;;2.84;64.12
37514;BME280;52779;42.670;23.326;2024-01-16T01:45:09;93341.34;;;2.88;64.89
37514;BME280;52779;42.670;23.326;2024-01-16T01:47:35;93336.00;;;2.83;65.01
37514;BME280;52779;42.670;23.326;2024-01-16T01:50:01;93329.59;;;2.98;64.41
37514;BME280;52779;42.670;23.326;2024-01-16T01:52:29;93338.56;;;2.89;64.33
37514;BME280;52779;42.670;23.326;2024-01-16T01:54:55;93343.88;;;3.01;64.78
37514;BME280;52779;42.670;23.326;2024-01-16T01:57:21;93345.44;;;3.02;64.81
37514;BME280;52779;42.670;23.326;2024-01-16T01:59:46;93362.06;;;3.12;64.96
37514;BME280;52779;42.670;23.326;2024-01-16T02:02:12;93346.63;;;3.06;65.07
37514;BME280;52779;42.670;23.326;2024-01-16T02:04:38;93332.53;;;3.02;65.51
37514;BME280;52779;42.670;23.326;2024-01-16T02:07:05;93345.84;;;2.99;65.70
37514;BME280;52779;42.670;23.326;2024-01-16T02:09:31;93337.44;;;3.17;65.66
37514;BME280;52779;42.670;23.326;2024-01-16T02:11:57;93344.06;;;3.06;65.96
37514;BME280;52779;42.670;23.326;2024-01-16T02:14:22;93361.09;;;3.07;66.47
37514;BME280;52779;42.670;23.326;2024-01-16T02:16:47;93352.53;;;3.20;66.55
37514;BME280;52779;42.670;23.326;2024-01-16T02:19:13;93366.81;;;3.15;66.21
37514;BME280;52779;42.670;23.326;2024-01-16T02:21:41;93354.16;;;3.07;66.60
37514;BME280;52779;42.670;23.326;2024-01-16T02:24:10;93356.91;;;3.12;66.79
37514;BME280;52779;42.670;23.326;2024-01-16T02:26:37;93372.75;;;3.16;66.60
37514;BME280;52779;42.670;23.326;2024-01-16T02:29:02;93369.22;;;3.10;67.16
37514;BME280;52779;42.670;23.326;2024-01-16T02:31:30;93366.97;;;3.21;67.11
37514;BME280;52779;42.670;23.326;2024-01-16T02:33:55;93373.31;;;3.25;67.17
37514;BME280;52779;42.670;23.326;2024-01-16T02:36:20;93377.28;;;3.27;66.86
37514;BME280;52779;42.670;23.326;2024-01-16T02:38:46;93380.66;;;3.28;67.37
37514;BME280;52779;42.670;23.326;2024-01-16T02:41:13;93380.66;;;3.28;66.82
37514;BME280;52779;42.670;23.326;2024-01-16T02:43:39;93380.25;;;3.31;66.84
37514;BME280;52779;42.670;23.326;2024-01-16T02:46:04;93384.59;;;3.37;67.27
37514;BME280;52779;42.670;23.326;2024-01-16T02:48:29;93377.28;;;3.27;67.13
37514;BME280;52779;42.670;23.326;2024-01-16T02:50:55;93410.72;;;3.47;66.94
37514;BME280;52779;42.670;23.326;2024-01-16T02:53:21;93421.47;;;3.44;66.87
37514;BME280;52779;42.670;23.326;2024-01-16T02:55:46;93435.72;;;3.53;66.79
37514;BME280;52779;42.670;23.326;2024-01-16T02:58:11;93444.44;;;3.58;67.11
37514;BME280;52779;42.670;23.326;2024-01-16T03:00:37;93457.91;;;3.60;66.99
37514;BME280;52779;42.670;23.326;2024-01-16T03:03:02;93461.03;;;3.76;66.88
37514;BME280;52779;42.670;23.326;2024-01-16T03:05:27;93464.59;;;3.75;66.47
37514;BME280;52779;42.670;23.326;2024-01-16T03:07:53;93470.81;;;3.67;66.60
37514;BME280;52779;42.670;23.326;2024-01-16T03:10:18;93462.53;;;3.52;67.33
37514;BME280;52779;42.670;23.326;2024-01-16T03:12:43;93492.69;;;3.65;67.19
37514;BME280;52779;42.670;23.326;2024-01-16T03:15:09;93487.34;;;3.59;67.08
37514;BME280;52779;42.670;23.326;2024-01-16T03:17:35;93507.56;;;3.69;67.37
37514;BME280;52779;42.670;23.326;2024-01-16T03:20:00;93511.50;;;3.72;67.03
37514;BME280;52779;42.670;23.326;2024-01-16T03:22:28;93524.22;;;3.73;67.53
37514;BME280;52779;42.670;23.326;2024-01-16T03:24:53;93524.22;;;3.67;71.06
37514;BME280;52779;42.670;23.326;2024-01-16T03:27:19;93523.44;;;3.66;75.20
37514;BME280;52779;42.670;23.326;2024-01-16T03:29:45;93536.56;;;3.65;75.79
37514;BME280;52779;42.670;23.326;2024-01-16T03:32:10;93546.84;;;3.71;76.86
37514;BME280;52779;42.670;23.326;2024-01-16T03:34:35;93540.88;;;3.77;77.21
37514;BME280;52779;42.670;23.326;2024-01-16T03:37:01;93545.41;;;3.88;77.05
37514;BME280;52779;42.670;23.326;2024-01-16T03:42:10;93566.72;;;3.77;77.56
37514;BME280;52779;42.670;23.326;2024-01-16T03:44:39;93573.28;;;3.73;77.76
37514;BME280;52779;42.670;23.326;2024-01-16T03:47:04;93570.28;;;3.70;77.72
37514;BME280;52779;42.670;23.326;2024-01-16T03:49:29;93569.34;;;3.64;77.54
37514;BME280;52779;42.670;23.326;2024-01-16T03:51:55;93580.22;;;3.66;77.01
37514;BME280;52779;42.670;23.326;2024-01-16T03:54:20;93576.84;;;3.66;76.88
37514;BME280;52779;42.670;23.326;2024-01-16T03:56:45;93586.81;;;3.55;76.17
37514;BME280;52779;42.670;23.326;2024-01-16T03:59:12;93604.09;;;3.48;76.17
37514;BME280;52779;42.670;23.326;2024-01-16T04:01:37;93618.00;;;3.47;75.75
37514;BME280;52779;42.670;23.326;2024-01-16T04:04:02;93622.78;;;3.50;76.00
37514;BME280;52779;42.670;23.326;2024-01-16T04:06:28;93625.53;;;3.49;75.54
37514;BME280;52779;42.670;23.326;2024-01-16T04:08:55;93626.75;;;3.46;74.86
37514;BME280;52779;42.670;23.326;2024-01-16T04:11:20;93638.25;;;3.44;75.19
37514;BME280;52779;42.670;23.326;2024-01-16T04:13:45;93628.94;;;3.30;74.75
37514;BME280;52779;42.670;23.326;2024-01-16T04:16:12;93640.84;;;3.31;74.21
37514;BME280;52779;42.670;23.326;2024-01-16T04:18:39;93658.50;;;3.21;73.87
37514;BME280;52779;42.670;23.326;2024-01-16T04:21:05;93656.53;;;3.09;73.80
37514;BME280;52779;42.670;23.326;2024-01-16T04:23:30;93667.22;;;3.06;74.07
37514;BME280;52779;42.670;23.326;2024-01-16T04:25:55;93668.41;;;3.04;73.96
37514;BME280;52779;42.670;23.326;2024-01-16T04:28:21;93672.38;;;3.06;73.67
37514;BME280;52779;42.670;23.326;2024-01-16T04:30:46;93680.69;;;3.02;73.92
37514;BME280;52779;42.670;23.326;2024-01-16T04:33:12;93673.53;;;2.84;74.06
37514;BME280;52779;42.670;23.326;2024-01-16T04:35:37;93690.81;;;2.90;74.03
37514;BME280;52779;42.670;23.326;2024-01-16T04:38:02;93691.81;;;2.96;73.34
37514;BME280;52779;42.670;23.326;2024-01-16T04:40:28;93697.97;;;2.95;73.11
37514;BME280;52779;42.670;23.326;2024-01-16T04:42:53;93695.97;;;2.90;73.29
37514;BME280;52779;42.670;23.326;2024-01-16T04:45:19;93707.09;;;2.91;73.20
37514;BME280;52779;42.670;23.326;2024-01-16T04:47:44;93713.81;;;2.85;73.33
37514;BME280;52779;42.670;23.326;2024-01-16T04:50:10;93723.34;;;2.91;73.05
37514;BME280;52779;42.670;23.326;2024-01-16T04:52:35;93735.41;;;2.84;73.39
37514;BME280;52779;42.670;23.326;2024-01-16T04:55:00;93744.75;;;2.79;73.62
37514;BME280;52779;42.670;23.326;2024-01-16T04:57:26;93744.47;;;2.60;73.36
37514;BME280;52779;42.670;23.326;2024-01-16T04:59:51;93757.78;;;2.70;72.96
37514;BME280;52779;42.670;23.326;2024-01-16T05:02:16;93775.25;;;2.68;73.13
37514;BME280;52779;42.670;23.326;2024-01-16T05:04:43;93782.34;;;2.60;72.63
37514;BME280;52779;42.670;23.326;2024-01-16T05:07:08;93777.34;;;2.52;72.57
37514;BME280;52779;42.670;23.326;2024-01-16T05:09:34;93790.59;;;2.42;72.98
37514;BME280;52779;42.670;23.326;2024-01-16T05:12:00;93787.56;;;2.39;73.30
37514;BME280;52779;42.670;23.326;2024-01-16T05:14:25;93784.56;;;2.29;73.17
37514;BME280;52779;42.670;23.326;2024-01-16T05:16:51;93807.19;;;2.40;72.91
37514;BME280;52779;42.670;23.326;2024-01-16T05:19:17;93809.78;;;2.40;73.15
37514;BME280;52779;42.670;23.326;2024-01-16T05:21:43;93808.72;;;2.28;72.67
37514;BME280;52779;42.670;23.326;2024-01-16T05:24:08;93827.81;;;2.40;72.34
37514;BME280;52779;42.670;23.326;2024-01-16T05:26:34;93826.84;;;2.41;72.06
37514;BME280;52779;42.670;23.326;2024-01-16T05:28:59;93850.03;;;2.41;71.95
37514;BME280;52779;42.670;23.326;2024-01-16T05:31:24;93850.25;;;2.46;71.83
37514;BME280;52779;42.670;23.326;2024-01-16T05:33:50;93852.69;;;2.54;71.67
37514;BME280;52779;42.670;23.326;2024-01-16T05:36:15;93853.78;;;2.38;70.84
37514;BME280;52779;42.670;23.326;2024-01-16T05:38:41;93845.81;;;2.33;71.17
37514;BME280;52779;42.670;23.326;2024-01-16T05:41:06;93864.28;;;2.37;70.92
37514;BME280;52779;42.670;23.326;2024-01-16T05:43:31;93872.00;;;2.37;70.71
37514;BME280;52779;42.670;23.326;2024-01-16T05:45:57;93889.06;;;2.38;70.68
37514;BME280;52779;42.670;23.326;2024-01-16T05:48:22;93880.31;;;2.32;70.87
37514;BME280;52779;42.670;23.326;2024-01-16T05:50:47;93896.66;;;2.46;69.76
37514;BME280;52779;42.670;23.326;2024-01-16T05:53:13;93914.69;;;2.46;70.09
37514;BME280;52779;42.670;23.326;2024-01-16T05:55:38;93854.84;;;2.16;69.26
37514;BME280;52779;42.670;23.326;2024-01-16T05:58:04;93923.16;;;2.40;68.94
37514;BME280;52779;42.670;23.326;2024-01-16T06:00:29;93929.50;;;2.37;68.37
37514;BME280;52779;42.670;23.326;2024-01-16T06:02:55;93939.41;;;2.40;68.46
37514;BME280;52779;42.670;23.326;2024-01-16T06:05:20;93940.47;;;2.46;68.70
37514;BME280;52779;42.670;23.326;2024-01-16T06:07:46;93950.38;;;2.49;68.15
37514;BME280;52779;42.670;23.326;2024-01-16T06:10:12;93953.50;;;2.44;68.30
37514;BME280;52779;42.670;23.326;2024-01-16T06:12:38;93958.88;;;2.43;67.93
37514;BME280;52779;42.670;23.326;2024-01-16T06:15:04;93956.47;;;2.41;68.40
37514;BME280;52779;42.670;23.326;2024-01-16T06:17:30;93982.34;;;2.54;68.66
37514;BME280;52779;42.670;23.326;2024-01-16T06:19:55;93989.91;;;2.56;68.19
37514;BME280;52779;42.670;23.326;2024-01-16T06:22:20;93999.44;;;2.62;68.19
37514;BME280;52779;42.670;23.326;2024-01-16T06:24:46;94004.25;;;2.65;68.27
37514;BME280;52779;42.670;23.326;2024-01-16T06:27:11;94010.81;;;2.67;68.28
37514;BME280;52779;42.670;23.326;2024-01-16T06:29:44;93978.72;;;2.49;67.96
37514;BME280;52779;42.670;23.326;2024-01-16T06:32:09;94013.22;;;2.69;68.09
37514;BME280;52779;42.670;23.326;2024-01-16T06:34:35;94006.84;;;2.65;67.53
37514;BME280;52779;42.670;23.326;2024-01-16T06:37:00;94015.53;;;2.64;67.90
37514;BME280;52779;42.670;23.326;2024-01-16T06:39:25;94026.00;;;2.56;67.51
37514;BME280;52779;42.670;23.326;2024-01-16T06:41:51;94034.19;;;2.45;66.29
37514;BME280;52779;42.670;23.326;2024-01-16T06:44:16;94035.19;;;2.44;66.24
37514;BME280;52779;42.670;23.326;2024-01-16T06:46:41;94045.59;;;2.36;66.13
37514;BME280;52779;42.670;23.326;2024-01-16T06:49:07;94037.38;;;2.25;65.70
37514;BME280;52779;42.670;23.326;2024-01-16T06:51:32;94011.09;;;1.94;65.83
37514;BME280;52779;42.670;23.326;2024-01-16T06:53:58;94058.09;;;2.17;65.75
37514;BME280;52779;42.670;23.326;2024-01-16T06:56:23;94070.88;;;2.25;65.72
37514;BME280;52779;42.670;23.326;2024-01-16T06:58:49;94061.31;;;2.19;64.63
37514;BME280;52779;42.670;23.326;2024-01-16T07:01:14;94081.84;;;2.13;65.07
37514;BME280;52779;42.670;23.326;2024-01-16T07:03:40;94086.00;;;2.14;65.30
37514;BME280;52779;42.670;23.326;2024-01-16T07:06:05;94083.31;;;2.22;64.72
37514;BME280;52779;42.670;23.326;2024-01-16T07:08:31;94087.06;;;2.19;65.20
37514;BME280;52779;42.670;23.326;2024-01-16T07:10:56;94086.81;;;2.14;65.71
37514;BME280;52779;42.670;23.326;2024-01-16T07:13:21;94101.97;;;2.24;65.43
37514;BME280;52779;42.670;23.326;2024-01-16T07:15:47;94097.00;;;2.22;65.74
37514;BME280;52779;42.670;23.326;2024-01-16T07:18:13;94110.50;;;2.24;65.37
37514;BME280;52779;42.670;23.326;2024-01-16T07:20:39;94125.97;;;2.24;65.89
37514;BME280;52779;42.670;23.326;2024-01-16T07:23:04;94139.88;;;2.30;65.55
37514;BME280;52779;42.670;23.326;2024-01-16T07:25:30;94138.09;;;2.31;65.01
37514;BME280;52779;42.670;23.326;2024-01-16T07:27:56;94141.69;;;2.30;65.16
37514;BME280;52779;42.670;23.326;2024-01-16T07:30:21;94155.53;;;2.29;65.72
37514;BME280;52779;42.670;23.326;2024-01-16T07:32:46;94140.09;;;2.14;65.28
37514;BME280;52779;42.670;23.326;2024-01-16T07:35:12;94168.00;;;2.25;64.61
37514;BME280;52779;42.670;23.326;2024-01-16T07:37:42;94172.59;;;2.30;64.40
37514;BME280;52779;42.670;23.326;2024-01-16T07:40:08;94177.84;;;2.21;64.62
37514;BME280;52779;42.670;23.326;2024-01-16T07:42:34;94181.16;;;2.15;64.30
37514;BME280;52779;42.670;23.326;2024-01-16T07:45:04;94192.84;;;2.18;64.68
37514;BME280;52779;42.670;23.326;2024-01-16T07:47:33;94183.00;;;2.21;65.29
37514;BME280;52779;42.670;23.326;2024-01-16T07:49:59;94179.34;;;2.31;65.32
37514;BME280;52779;42.670;23.326;2024-01-16T07:52:25;94192.84;;;2.33;64.89
37514;BME280;52779;42.670;23.326;2024-01-16T07:54:50;94192.22;;;2.31;64.23
37514;BME280;52779;42.670;23.326;2024-01-16T07:57:16;94202.47;;;2.24;64.33
37514;BME280;52779;42.670;23.326;2024-01-16T07:59:41;94214.53;;;2.23;64.13
37514;BME280;52779;42.670;23.326;2024-01-16T08:02:07;94225.38;;;2.19;64.08
37514;BME280;52779;42.670;23.326;2024-01-16T08:04:33;94201.66;;;2.23;64.53
37514;BME280;52779;42.670;23.326;2024-01-16T08:06:59;94207.94;;;2.21;64.39
37514;BME280;52779;42.670;23.326;2024-01-16T08:09:24;94232.38;;;2.40;64.02
37514;BME280;52779;42.670;23.326;2024-01-16T08:11:50;94242.03;;;2.52;63.41
37514;BME280;52779;42.670;23.326;2024-01-16T08:14:15;94247.66;;;2.56;63.46
37514;BME280;52779;42.670;23.326;2024-01-16T08:16:40;94233.75;;;2.57;63.46
37514;BME280;52779;42.670;23.326;2024-01-16T08:19:06;94249.97;;;2.51;63.62
37514;BME280;52779;42.670;23.326;2024-01-16T08:21:31;94260.88;;;2.53;63.07
37514;BME280;52779;42.670;23.326;2024-01-16T08:23:57;94270.47;;;2.59;63.62
37514;BME280;52779;42.670;23.326;2024-01-16T08:26:22;94274.28;;;2.63;63.23
37514;BME280;52779;42.670;23.326;2024-01-16T08:28:47;94276.00;;;2.56;63.65
37514;BME280;52779;42.670;23.326;2024-01-16T08:31:16;94280.69;;;2.67;63.16
37514;BME280;52779;42.670;23.326;2024-01-16T08:33:42;94281.75;;;2.73;62.53
37514;BME280;52779;42.670;23.326;2024-01-16T08:36:07;94300.66;;;2.80;63.18
37514;BME280;52779;42.670;23.326;2024-01-16T08:38:33;94299.09;;;2.79;62.17
37514;BME280;52779;42.670;23.326;2024-01-16T08:40:58;94301.41;;;2.74;61.27
37514;BME280;52779;42.670;23.326;2024-01-16T08:43:23;94313.16;;;2.47;61.51
37514;BME280;52779;42.670;23.326;2024-01-16T08:45:49;94326.38;;;2.44;62.31
37514;BME280;52779;42.670;23.326;2024-01-16T08:48:14;94316.34;;;2.49;62.06
37514;BME280;52779;42.670;23.326;2024-01-16T08:50:40;94303.38;;;2.42;61.97
37514;BME280;52779;42.670;23.326;2024-01-16T08:53:06;94322.47;;;2.48;61.54
37514;BME280;52779;42.670;23.326;2024-01-16T08:55:32;94325.25;;;2.46;61.99
37514;BME280;52779;42.670;23.326;2024-01-16T08:57:57;94326.38;;;2.44;62.40
37514;BME280;52779;42.670;23.326;2024-01-16T09:00:23;94328.09;;;2.51;62.04
37514;BME280;52779;42.670;23.326;2024-01-16T09:02:48;94324.72;;;2.51;61.88
37514;BME280;52779;42.670;23.326;2024-01-16T09:05:14;94351.63;;;2.63;61.62
37514;BME280;52779;42.670;23.326;2024-01-16T09:07:40;94325.31;;;2.53;61.05
37514;BME280;52779;42.670;23.326;2024-01-16T09:10:06;94336.59;;;2.66;61.54
37514;BME280;52779;42.670;23.326;2024-01-16T09:12:32;94316.34;;;2.49;60.89
37514;BME280;52779;42.670;23.326;2024-01-16T09:14:57;94337.34;;;2.60;61.92
37514;BME280;52779;42.670;23.326;2024-01-16T09:17:22;94337.78;;;2.64;61.06
37514;BME280;52779;42.670;23.326;2024-01-16T09:19:48;94348.88;;;2.79;60.75
37514;BME280;52779;42.670;23.326;2024-01-16T09:22:13;94349.75;;;2.72;60.76
37514;BME280;52779;42.670;23.326;2024-01-16T09:24:40;94345.50;;;2.79;61.03
37514;BME280;52779;42.670;23.326;2024-01-16T09:27:06;94349.28;;;2.97;60.83
37514;BME280;52779;42.670;23.326;2024-01-16T09:29:32;94345.41;;;3.01;59.88
37514;BME280;52779;42.670;23.326;2024-01-16T09:31:57;94360.41;;;2.98;59.64
37514;BME280;52779;42.670;23.326;2024-01-16T09:34:22;94357.50;;;3.01;59.71
37514;BME280;52779;42.670;23.326;2024-01-16T09:36:48;94334.72;;;2.75;58.95
37514;BME280;52779;42.670;23.326;2024-01-16T09:39:14;94340.16;;;2.80;59.61
37514;BME280;52779;42.670;23.326;2024-01-16T09:41:39;94336.75;;;2.94;59.39
37514;BME280;52779;42.670;23.326;2024-01-16T09:44:06;94346.03;;;3.25;58.70
37514;BME280;52779;42.670;23.326;2024-01-16T09:46:34;94349.91;;;3.50;58.38
37514;BME280;52779;42.670;23.326;2024-01-16T09:49:00;94350.84;;;3.64;57.04
37514;BME280;52779;42.670;23.326;2024-01-16T09:51:25;94370.94;;;3.68;56.19
37514;BME280;52779;42.670;23.326;2024-01-16T09:53:51;94366.88;;;3.59;56.33
37514;BME280;52779;42.670;23.326;2024-01-16T09:56:21;94366.38;;;3.49;56.60
37514;BME280;52779;42.670;23.326;2024-01-16T09:58:49;94343.50;;;3.46;56.82
37514;BME280;52779;42.670;23.326;2024-01-16T10:01:15;94368.50;;;3.81;56.18
37514;BME280;52779;42.670;23.326;2024-01-16T10:03:44;94346.84;;;3.82;56.14
37514;BME280;52779;42.670;23.326;2024-01-16T10:08:54;94355.88;;;3.93;54.84
37514;BME280;52779;42.670;23.326;2024-01-16T10:11:19;94353.34;;;3.99;53.93
37514;BME280;52779;42.670;23.326;2024-01-16T10:13:45;94356.84;;;4.13;54.06
37514;BME280;52779;42.670;23.326;2024-01-16T10:16:10;94353.94;;;4.01;53.26
37514;BME280;52779;42.670;23.326;2024-01-16T10:18:35;94358.63;;;4.13;53.43
37514;BME280;52779;42.670;23.326;2024-01-16T10:21:03;94362.25;;;4.46;52.78
37514;BME280;52779;42.670;23.326;2024-01-16T10:23:31;94364.63;;;4.41;52.61
37514;BME280;52779;42.670;23.326;2024-01-16T10:28:36;94361.25;;;4.47;52.57
37514;BME280;52779;42.670;23.326;2024-01-16T10:31:06;94354.16;;;4.56;53.84
37514;BME280;52779;42.670;23.326;2024-01-16T10:33:32;94370.88;;;4.87;52.24
37514;BME280;52779;42.670;23.326;2024-01-16T10:38:40;94352.88;;;5.14;50.76
37514;BME280;52779;42.670;23.326;2024-01-16T10:41:09;94344.81;;;5.50;50.01
37514;BME280;52779;42.670;23.326;2024-01-16T10:43:35;94371.63;;;5.83;49.71
37514;BME280;52779;42.670;23.326;2024-01-16T10:46:12;94359.94;;;6.20;48.96
37514;BME280;52779;42.670;23.326;2024-01-16T10:48:39;94366.91;;;6.65;47.49
37514;BME280;52779;42.670;23.326;2024-01-16T10:51:18;94362.25;;;6.94;46.69
37514;BME280;52779;42.670;23.326;2024-01-16T10:53:45;94357.31;;;6.66;46.44
37514;BME280;52779;42.670;23.326;2024-01-16T10:56:12;94356.69;;;6.77;45.68
37514;BME280;52779;42.670;23.326;2024-01-16T10:58:41;94348.50;;;6.87;46.63
37514;BME280;52779;42.670;23.326;2024-01-16T11:01:10;94338.88;;;6.94;45.39
37514;BME280;52779;42.670;23.326;2024-01-16T11:03:53;94360.47;;;6.81;45.45
37514;BME280;52779;42.670;23.326;2024-01-16T11:06:22;94374.09;;;6.50;46.04
37514;BME280;52779;42.670;23.326;2024-01-16T11:08:49;94369.91;;;6.30;46.82
37514;BME280;52779;42.670;23.326;2024-01-16T11:11:15;94368.09;;;6.04;47.08
37514;BME280;52779;42.670;23.326;2024-01-16T11:13:41;94374.06;;;5.98;47.29
37514;BME280;52779;42.670;23.326;2024-01-16T11:16:10;94385.63;;;5.89;47.92
37514;BME280;52779;42.670;23.326;2024-01-16T11:18:36;94388.81;;;5.91;49.03
37514;BME280;52779;42.670;23.326;2024-01-16T11:21:22;94378.66;;;5.89;48.97
37514;BME280;52779;42.670;23.326;2024-01-16T11:23:48;94359.91;;;5.94;49.23
37514;BME280;52779;42.670;23.326;2024-01-16T11:28:55;94359.72;;;5.89;48.58
37514;BME280;52779;42.670;23.326;2024-01-16T11:31:34;94366.84;;;5.80;48.45
37514;BME280;52779;42.670;23.326;2024-01-16T11:34:01;94373.41;;;5.76;48.81
37514;BME280;52779;42.670;23.326;2024-01-16T11:37:02;94374.38;;;5.68;48.56
37514;BME280;52779;42.670;23.326;2024-01-16T11:39:30;94367.16;;;5.44;49.36
37514;BME280;52779;42.670;23.326;2024-01-16T11:41:59;94382.25;;;5.34;49.68
37514;BME280;52779;42.670;23.326;2024-01-16T11:44:47;94380.19;;;5.23;48.71
37514;BME280;52779;42.670;23.326;2024-01-16T11:47:19;94368.00;;;5.10;49.03
37514;BME280;52779;42.670;23.326;2024-01-16T11:50:07;94380.75;;;5.12;49.50
37514;BME280;52779;42.670;23.326;2024-01-16T11:52:43;94393.06;;;5.10;50.33
37514;BME280;52779;42.670;23.326;2024-01-16T11:55:28;94395.44;;;5.05;50.66
37514;BME280;52779;42.670;23.326;2024-01-16T11:58:54;94393.13;;;5.16;50.71
37514;BME280;52779;42.670;23.326;2024-01-16T12:01:00;94382.19;;;5.21;50.68
37514;BME280;52779;42.670;23.326;2024-01-16T12:03:25;94388.97;;;5.22;51.90
37514;BME280;52779;42.670;23.326;2024-01-16T12:06:01;94399.31;;;5.22;51.71
37514;BME280;52779;42.670;23.326;2024-01-16T12:08:27;94411.25;;;5.23;51.08
37514;BME280;52779;42.670;23.326;2024-01-16T12:10:53;94411.47;;;5.21;50.00
37514;BME280;52779;42.670;23.326;2024-01-16T12:13:19;94420.38;;;5.12;50.17
37514;BME280;52779;42.670;23.326;2024-01-16T12:15:44;94426.31;;;5.06;50.00
37514;BME280;52779;42.670;23.326;2024-01-16T12:18:18;94426.28;;;5.00;49.67
37514;BME280;52779;42.670;23.326;2024-01-16T12:20:43;94416.75;;;5.07;49.43
37514;BME280;52779;42.670;23.326;2024-01-16T12:23:09;94416.00;;;5.13;49.91
37514;BME280;52779;42.670;23.326;2024-01-16T12:25:36;94414.78;;;5.09;49.66
37514;BME280;52779;42.670;23.326;2024-01-16T12:28:06;94420.72;;;5.03;50.54
37514;BME280;52779;42.670;23.326;2024-01-16T12:30:35;94406.59;;;4.71;50.70
37514;BME280;52779;42.670;23.326;2024-01-16T12:35:35;94435.53;;;4.60;51.26
37514;BME280;52779;42.670;23.326;2024-01-16T12:38:01;94418.66;;;4.36;50.90
37514;BME280;52779;42.670;23.326;2024-01-16T12:40:28;94432.09;;;4.25;51.68
37514;BME280;52779;42.670;23.326;2024-01-16T12:42:54;94430.38;;;4.32;52.81
37514;BME280;52779;42.670;23.326;2024-01-16T12:45:19;94434.19;;;4.36;52.50
37514;BME280;52779;42.670;23.326;2024-01-16T12:47:52;94442.09;;;4.34;52.71
37514;BME280;52779;42.670;23.326;2024-01-16T12:50:19;94444.56;;;4.42;52.14
37514;BME280;52779;42.670;23.326;2024-01-16T12:52:45;94444.38;;;4.44;51.91
37514;BME280;52779;42.670;23.326;2024-01-16T12:55:13;94439.47;;;4.49;52.24
37514;BME280;52779;42.670;23.326;2024-01-16T12:57:39;94431.06;;;4.47;51.82
37514;BME280;52779;42.670;23.326;2024-01-16T13:00:23;94424.47;;;4.66;52.11
37514;BME280;52779;42.670;23.326;2024-01-16T13:02:52;94440.63;;;4.74;52.06
37514;BME280;52779;42.670;23.326;2024-01-16T13:05:18;94438.75;;;4.89;51.87
37514;BME280;52779;42.670;23.326;2024-01-16T13:07:44;94439.13;;;4.86;51.33
37514;BME280;52779;42.670;23.326;2024-01-16T13:10:10;94432.69;;;5.10;50.89
37514;BME280;52779;42.670;23.326;2024-01-16T13:12:37;94445.13;;;5.21;50.52